sensor_id;sensor_type;location;lat;lon;timestamp;P1;durP1;ratioP1;P2;durP2;ratioP2
19278;SDS011;9773;47.062;15.446;2023-05-08T00:01:13;6.03;;;5.40;;
19278;SDS011;9773;47.062;15.446;2023-05-08T00:03:40;6.13;;;5.53;;
19278;SDS011;9773;47.062;15.446;2023-05-08T00:06:06;5.20;;;4.80;;
19278;SDS011;9773;47.062;15.446;2023-05-08T00:08:32;5.80;;;5.17;;
19278;SDS011;9773;47.062;15.446;2023-05-08T00:10:57;5.63;;;5.13;;
19278;SDS011;9773;47.062;15.446;2023-05-08T00:13:23;5.43;;;4.93;;
19278;SDS011;9773;47.062;15.446;2023-05-08T00:15:49;5.87;;;5.17;;
19278;SDS011;9773;47.062;15.446;2023-05-08T00:18:16;6.23;;;5.53;;
19278;SDS011;9773;47.062;15.446;2023-05-08T00:20:42;6.57;;;5.37;;
19278;SDS011;9773;47.062;15.446;2023-05-08T00:23:08;6.00;;;5.40;;
19278;SDS011;9773;47.062;15.446;2023-05-08T00:25:33;5.83;;;5.33;;
19278;SDS011;9773;47.062;15.446;2023-05-08T00:27:59;6.23;;;5.63;;
19278;SDS011;9773;47.062;15.446;2023-05-08T00:30:26;9.07;;;5.70;;
19278;SDS011;9773;47.062;15.446;2023-05-08T00:32:52;7.10;;;5.70;;
19278;SDS011;9773;47.062;15.446;2023-05-08T00:35:18;5.83;;;5.23;;
19278;SDS011;9773;47.062;15.446;2023-05-08T00:37:44;5.73;;;5.33;;
19278;SDS011;9773;47.062;15.446;2023-05-08T00:40:11;6.63;;;6.03;;
19278;SDS011;9773;47.062;15.446;2023-05-08T00:42:37;6.50;;;5.87;;
19278;SDS011;9773;47.062;15.446;2023-05-08T00:45:03;7.10;;;6.43;;
19278;SDS011;9773;47.062;15.446;2023-05-08T00:47:30;6.60;;;6.10;;
19278;SDS011;9773;47.062;15.446;2023-05-08T00:49:57;7.00;;;6.00;;
19278;SDS011;9773;47.062;15.446;2023-05-08T00:52:24;6.53;;;5.70;;
19278;SDS011;9773;47.062;15.446;2023-05-08T00:54:51;6.50;;;5.90;;
19278;SDS011;9773;47.062;15.446;2023-05-08T00:57:18;9.17;;;6.37;;
19278;SDS011;9773;47.062;15.446;2023-05-08T00:59:48;12.03;;;6.27;;
19278;SDS011;9773;47.062;15.446;2023-05-08T01:02:14;5.93;;;5.43;;
19278;SDS011;9773;47.062;15.446;2023-05-08T01:04:41;6.40;;;5.90;;
19278;SDS011;9773;47.062;15.446;2023-05-08T01:07:09;7.87;;;5.70;;
19278;SDS011;9773;47.062;15.446;2023-05-08T01:09:38;6.70;;;5.70;;
19278;SDS011;9773;47.062;15.446;2023-05-08T01:12:19;7.20;;;6.50;;
19278;SDS011;9773;47.062;15.446;2023-05-08T01:15:08;6.10;;;5.60;;
19278;SDS011;9773;47.062;15.446;2023-05-08T01:17:44;6.23;;;5.67;;
19278;SDS011;9773;47.062;15.446;2023-05-08T01:20:34;6.33;;;5.73;;
19278;SDS011;9773;47.062;15.446;2023-05-08T01:28:37;6.23;;;5.63;;
19278;SDS011;9773;47.062;15.446;2023-05-08T01:31:29;6.67;;;6.07;;
19278;SDS011;9773;47.062;15.446;2023-05-08T01:34:25;5.73;;;5.30;;
19278;SDS011;9773;47.062;15.446;2023-05-08T01:42:08;7.33;;;6.63;;
19278;SDS011;9773;47.062;15.446;2023-05-08T01:44:48;6.37;;;5.77;;
19278;SDS011;9773;47.062;15.446;2023-05-08T01:47:22;7.53;;;6.83;;
19278;SDS011;9773;47.062;15.446;2023-05-08T01:50:37;7.10;;;6.40;;
19278;SDS011;9773;47.062;15.446;2023-05-08T01:52:44;7.40;;;6.60;;
19278;SDS011;9773;47.062;15.446;2023-05-08T01:55:23;6.63;;;6.03;;
19278;SDS011;9773;47.062;15.446;2023-05-08T01:57:52;6.63;;;6.03;;
19278;SDS011;9773;47.062;15.446;2023-05-08T02:00:21;7.17;;;6.47;;
19278;SDS011;9773;47.062;15.446;2023-05-08T02:02:49;6.97;;;6.27;;
19278;SDS011;9773;47.062;15.446;2023-05-08T02:05:20;7.40;;;6.70;;
19278;SDS011;9773;47.062;15.446;2023-05-08T02:07:48;7.30;;;6.67;;
19278;SDS011;9773;47.062;15.446;2023-05-08T02:10:14;6.73;;;6.13;;
19278;SDS011;9773;47.062;15.446;2023-05-08T02:12:42;8.27;;;6.90;;
19278;SDS011;9773;47.062;15.446;2023-05-08T02:15:08;7.97;;;7.17;;
19278;SDS011;9773;47.062;15.446;2023-05-08T02:17:37;7.47;;;6.70;;
19278;SDS011;9773;47.062;15.446;2023-05-08T02:20:05;7.73;;;6.87;;
19278;SDS011;9773;47.062;15.446;2023-05-08T02:22:32;9.80;;;6.87;;
19278;SDS011;9773;47.062;15.446;2023-05-08T02:24:59;7.43;;;6.77;;
19278;SDS011;9773;47.062;15.446;2023-05-08T02:27:27;8.97;;;7.03;;
19278;SDS011;9773;47.062;15.446;2023-05-08T02:29:55;7.57;;;6.87;;
19278;SDS011;9773;47.062;15.446;2023-05-08T02:32:23;9.63;;;7.20;;
19278;SDS011;9773;47.062;15.446;2023-05-08T02:34:51;8.20;;;7.40;;
19278;SDS011;9773;47.062;15.446;2023-05-08T02:37:18;9.20;;;8.30;;
19278;SDS011;9773;47.062;15.446;2023-05-08T02:39:46;8.27;;;7.47;;
19278;SDS011;9773;47.062;15.446;2023-05-08T02:42:13;10.87;;;7.23;;
19278;SDS011;9773;47.062;15.446;2023-05-08T02:44:40;8.20;;;7.40;;
19278;SDS011;9773;47.062;15.446;2023-05-08T02:47:20;8.20;;;7.40;;
19278;SDS011;9773;47.062;15.446;2023-05-08T02:49:49;7.70;;;7.00;;
19278;SDS011;9773;47.062;15.446;2023-05-08T03:00:05;8.23;;;7.37;;
19278;SDS011;9773;47.062;15.446;2023-05-08T03:02:47;8.27;;;7.43;;
19278;SDS011;9773;47.062;15.446;2023-05-08T03:05:23;8.90;;;8.00;;
19278;SDS011;9773;47.062;15.446;2023-05-08T03:07:54;8.80;;;7.90;;
19278;SDS011;9773;47.062;15.446;2023-05-08T03:10:38;7.70;;;7.00;;
19278;SDS011;9773;47.062;15.446;2023-05-08T03:13:07;7.83;;;7.03;;
19278;SDS011;9773;47.062;15.446;2023-05-08T03:15:36;7.70;;;6.90;;
19278;SDS011;9773;47.062;15.446;2023-05-08T03:18:18;7.90;;;7.10;;
19278;SDS011;9773;47.062;15.446;2023-05-08T03:20:47;11.43;;;7.60;;
19278;SDS011;9773;47.062;15.446;2023-05-08T03:23:17;8.17;;;7.23;;
19278;SDS011;9773;47.062;15.446;2023-05-08T03:25:48;7.83;;;7.13;;
19278;SDS011;9773;47.062;15.446;2023-05-08T03:28:15;9.33;;;8.37;;
19278;SDS011;9773;47.062;15.446;2023-05-08T03:30:43;9.30;;;7.67;;
19278;SDS011;9773;47.062;15.446;2023-05-08T03:33:10;11.23;;;7.17;;
19278;SDS011;9773;47.062;15.446;2023-05-08T03:35:37;10.47;;;7.70;;
19278;SDS011;9773;47.062;15.446;2023-05-08T03:38:04;10.07;;;6.80;;
19278;SDS011;9773;47.062;15.446;2023-05-08T03:40:31;7.47;;;6.73;;
19278;SDS011;9773;47.062;15.446;2023-05-08T03:43:01;11.43;;;7.33;;
19278;SDS011;9773;47.062;15.446;2023-05-08T03:45:28;8.50;;;6.80;;
19278;SDS011;9773;47.062;15.446;2023-05-08T03:47:56;7.80;;;7.00;;
19278;SDS011;9773;47.062;15.446;2023-05-08T03:50:23;8.53;;;7.53;;
19278;SDS011;9773;47.062;15.446;2023-05-08T03:52:49;9.17;;;7.43;;
19278;SDS011;9773;47.062;15.446;2023-05-08T03:55:15;10.40;;;7.13;;
19278;SDS011;9773;47.062;15.446;2023-05-08T03:57:44;9.00;;;7.77;;
19278;SDS011;9773;47.062;15.446;2023-05-08T04:00:25;8.07;;;7.27;;
19278;SDS011;9773;47.062;15.446;2023-05-08T04:03:09;8.67;;;6.77;;
19278;SDS011;9773;47.062;15.446;2023-05-08T04:05:50;8.33;;;7.37;;
19278;SDS011;9773;47.062;15.446;2023-05-08T04:08:24;7.93;;;7.13;;
19278;SDS011;9773;47.062;15.446;2023-05-08T04:11:38;10.43;;;7.77;;
19278;SDS011;9773;47.062;15.446;2023-05-08T04:13:56;9.60;;;7.60;;
19278;SDS011;9773;47.062;15.446;2023-05-08T04:16:27;9.40;;;8.40;;
19278;SDS011;9773;47.062;15.446;2023-05-08T04:19:03;9.70;;;7.63;;
19278;SDS011;9773;47.062;15.446;2023-05-08T04:21:35;8.40;;;7.53;;
19278;SDS011;9773;47.062;15.446;2023-05-08T04:24:03;9.43;;;7.97;;
19278;SDS011;9773;47.062;15.446;2023-05-08T04:26:34;11.60;;;8.43;;
19278;SDS011;9773;47.062;15.446;2023-05-08T04:29:00;8.80;;;7.90;;
19278;SDS011;9773;47.062;15.446;2023-05-08T04:31:26;9.57;;;7.70;;
19278;SDS011;9773;47.062;15.446;2023-05-08T04:33:54;9.20;;;7.93;;
19278;SDS011;9773;47.062;15.446;2023-05-08T04:36:20;9.57;;;8.07;;
19278;SDS011;9773;47.062;15.446;2023-05-08T04:38:46;10.63;;;8.90;;
19278;SDS011;9773;47.062;15.446;2023-05-08T04:41:11;11.00;;;8.33;;
19278;SDS011;9773;47.062;15.446;2023-05-08T04:43:39;11.00;;;8.83;;
19278;SDS011;9773;47.062;15.446;2023-05-08T04:46:06;10.43;;;8.53;;
19278;SDS011;9773;47.062;15.446;2023-05-08T04:48:32;10.67;;;8.57;;
19278;SDS011;9773;47.062;15.446;2023-05-08T04:50:58;10.80;;;8.73;;
19278;SDS011;9773;47.062;15.446;2023-05-08T04:53:25;10.10;;;9.00;;
19278;SDS011;9773;47.062;15.446;2023-05-08T04:55:51;10.10;;;8.60;;
19278;SDS011;9773;47.062;15.446;2023-05-08T04:58:17;10.63;;;8.73;;
19278;SDS011;9773;47.062;15.446;2023-05-08T05:00:42;14.03;;;10.30;;
19278;SDS011;9773;47.062;15.446;2023-05-08T05:03:08;12.60;;;9.70;;
19278;SDS011;9773;47.062;15.446;2023-05-08T05:05:36;11.00;;;8.80;;
19278;SDS011;9773;47.062;15.446;2023-05-08T05:08:02;12.80;;;9.07;;
19278;SDS011;9773;47.062;15.446;2023-05-08T05:10:29;11.07;;;8.87;;
19278;SDS011;9773;47.062;15.446;2023-05-08T05:12:54;11.77;;;9.20;;
19278;SDS011;9773;47.062;15.446;2023-05-08T05:15:22;11.23;;;9.50;;
19278;SDS011;9773;47.062;15.446;2023-05-08T05:17:48;9.87;;;8.83;;
19278;SDS011;9773;47.062;15.446;2023-05-08T05:20:13;10.67;;;8.93;;
19278;SDS011;9773;47.062;15.446;2023-05-08T05:22:39;12.23;;;9.13;;
19278;SDS011;9773;47.062;15.446;2023-05-08T05:25:05;12.20;;;8.90;;
19278;SDS011;9773;47.062;15.446;2023-05-08T05:27:33;10.93;;;9.30;;
19278;SDS011;9773;47.062;15.446;2023-05-08T05:30:00;12.40;;;9.23;;
19278;SDS011;9773;47.062;15.446;2023-05-08T05:32:26;11.40;;;9.40;;
19278;SDS011;9773;47.062;15.446;2023-05-08T05:34:52;10.87;;;9.47;;
19278;SDS011;9773;47.062;15.446;2023-05-08T05:37:18;11.30;;;9.30;;
19278;SDS011;9773;47.062;15.446;2023-05-08T05:39:44;11.00;;;9.07;;
19278;SDS011;9773;47.062;15.446;2023-05-08T05:42:09;11.10;;;8.43;;
19278;SDS011;9773;47.062;15.446;2023-05-08T05:44:35;11.40;;;8.97;;
19278;SDS011;9773;47.062;15.446;2023-05-08T05:47:02;11.70;;;9.27;;
19278;SDS011;9773;47.062;15.446;2023-05-08T05:49:34;10.60;;;8.67;;
19278;SDS011;9773;47.062;15.446;2023-05-08T05:52:00;11.87;;;9.60;;
19278;SDS011;9773;47.062;15.446;2023-05-08T05:54:25;11.13;;;9.03;;
19278;SDS011;9773;47.062;15.446;2023-05-08T05:56:51;10.47;;;8.97;;
19278;SDS011;9773;47.062;15.446;2023-05-08T05:59:17;12.33;;;9.27;;
19278;SDS011;9773;47.062;15.446;2023-05-08T06:01:43;12.27;;;9.60;;
19278;SDS011;9773;47.062;15.446;2023-05-08T06:04:08;12.47;;;9.53;;
19278;SDS011;9773;47.062;15.446;2023-05-08T06:06:35;12.67;;;9.77;;
19278;SDS011;9773;47.062;15.446;2023-05-08T06:09:00;10.03;;;8.60;;
19278;SDS011;9773;47.062;15.446;2023-05-08T06:11:26;14.13;;;9.67;;
19278;SDS011;9773;47.062;15.446;2023-05-08T06:13:52;10.67;;;9.40;;
19278;SDS011;9773;47.062;15.446;2023-05-08T06:16:17;13.67;;;9.33;;
19278;SDS011;9773;47.062;15.446;2023-05-08T06:18:47;12.13;;;9.23;;
19278;SDS011;9773;47.062;15.446;2023-05-08T06:21:12;13.20;;;9.70;;
19278;SDS011;9773;47.062;15.446;2023-05-08T06:23:38;14.03;;;10.17;;
19278;SDS011;9773;47.062;15.446;2023-05-08T06:26:05;13.00;;;9.80;;
19278;SDS011;9773;47.062;15.446;2023-05-08T06:28:31;11.60;;;9.43;;
19278;SDS011;9773;47.062;15.446;2023-05-08T06:30:56;11.23;;;9.27;;
19278;SDS011;9773;47.062;15.446;2023-05-08T06:33:22;10.80;;;8.97;;
19278;SDS011;9773;47.062;15.446;2023-05-08T06:35:48;11.43;;;10.03;;
19278;SDS011;9773;47.062;15.446;2023-05-08T06:38:14;14.47;;;9.87;;
19278;SDS011;9773;47.062;15.446;2023-05-08T06:40:43;13.23;;;9.77;;
19278;SDS011;9773;47.062;15.446;2023-05-08T06:43:09;13.33;;;9.87;;
19278;SDS011;9773;47.062;15.446;2023-05-08T06:45:36;12.00;;;9.30;;
19278;SDS011;9773;47.062;15.446;2023-05-08T06:48:02;11.50;;;9.60;;
19278;SDS011;9773;47.062;15.446;2023-05-08T06:50:28;13.07;;;10.57;;
19278;SDS011;9773;47.062;15.446;2023-05-08T06:52:55;13.57;;;10.20;;
19278;SDS011;9773;47.062;15.446;2023-05-08T06:55:21;11.43;;;9.93;;
19278;SDS011;9773;47.062;15.446;2023-05-08T06:57:46;10.30;;;9.03;;
19278;SDS011;9773;47.062;15.446;2023-05-08T07:00:12;14.07;;;10.47;;
19278;SDS011;9773;47.062;15.446;2023-05-08T07:02:38;10.83;;;9.23;;
19278;SDS011;9773;47.062;15.446;2023-05-08T07:05:04;12.77;;;9.40;;
19278;SDS011;9773;47.062;15.446;2023-05-08T07:07:30;13.73;;;10.10;;
19278;SDS011;9773;47.062;15.446;2023-05-08T07:09:58;10.60;;;9.13;;
19278;SDS011;9773;47.062;15.446;2023-05-08T07:12:23;11.53;;;8.80;;
19278;SDS011;9773;47.062;15.446;2023-05-08T07:14:49;14.33;;;9.90;;
19278;SDS011;9773;47.062;15.446;2023-05-08T07:17:15;12.33;;;9.80;;
19278;SDS011;9773;47.062;15.446;2023-05-08T07:19:43;12.77;;;8.97;;
19278;SDS011;9773;47.062;15.446;2023-05-08T07:22:13;12.93;;;10.10;;
19278;SDS011;9773;47.062;15.446;2023-05-08T07:24:39;13.33;;;9.90;;
19278;SDS011;9773;47.062;15.446;2023-05-08T07:27:05;13.97;;;10.07;;
19278;SDS011;9773;47.062;15.446;2023-05-08T07:29:31;13.07;;;9.90;;
19278;SDS011;9773;47.062;15.446;2023-05-08T07:31:56;12.87;;;10.40;;
19278;SDS011;9773;47.062;15.446;2023-05-08T07:34:22;14.60;;;10.20;;
19278;SDS011;9773;47.062;15.446;2023-05-08T07:36:48;14.13;;;10.80;;
19278;SDS011;9773;47.062;15.446;2023-05-08T07:39:13;13.67;;;10.00;;
19278;SDS011;9773;47.062;15.446;2023-05-08T07:41:39;13.73;;;9.90;;
19278;SDS011;9773;47.062;15.446;2023-05-08T07:44:05;13.03;;;10.87;;
19278;SDS011;9773;47.062;15.446;2023-05-08T07:46:31;13.23;;;10.43;;
19278;SDS011;9773;47.062;15.446;2023-05-08T07:48:57;13.93;;;10.60;;
19278;SDS011;9773;47.062;15.446;2023-05-08T07:51:23;13.23;;;10.43;;
19278;SDS011;9773;47.062;15.446;2023-05-08T07:53:51;11.10;;;9.10;;
19278;SDS011;9773;47.062;15.446;2023-05-08T07:56:18;15.40;;;10.67;;
19278;SDS011;9773;47.062;15.446;2023-05-08T07:58:44;12.43;;;9.83;;
19278;SDS011;9773;47.062;15.446;2023-05-08T08:01:11;12.80;;;10.07;;
19278;SDS011;9773;47.062;15.446;2023-05-08T08:03:37;14.00;;;10.57;;
19278;SDS011;9773;47.062;15.446;2023-05-08T08:06:03;15.23;;;11.03;;
19278;SDS011;9773;47.062;15.446;2023-05-08T08:08:29;14.13;;;11.40;;
19278;SDS011;9773;47.062;15.446;2023-05-08T08:10:55;13.70;;;11.03;;
19278;SDS011;9773;47.062;15.446;2023-05-08T08:13:20;13.07;;;10.00;;
19278;SDS011;9773;47.062;15.446;2023-05-08T08:15:46;15.03;;;9.93;;
19278;SDS011;9773;47.062;15.446;2023-05-08T08:18:12;13.90;;;10.60;;
19278;SDS011;9773;47.062;15.446;2023-05-08T08:20:38;14.10;;;11.17;;
19278;SDS011;9773;47.062;15.446;2023-05-08T08:23:04;12.47;;;10.17;;
19278;SDS011;9773;47.062;15.446;2023-05-08T08:25:30;13.00;;;9.77;;
19278;SDS011;9773;47.062;15.446;2023-05-08T08:27:57;15.60;;;11.10;;
19278;SDS011;9773;47.062;15.446;2023-05-08T08:30:22;12.90;;;9.80;;
19278;SDS011;9773;47.062;15.446;2023-05-08T08:32:48;13.53;;;10.20;;
19278;SDS011;9773;47.062;15.446;2023-05-08T08:35:14;15.97;;;10.70;;
19278;SDS011;9773;47.062;15.446;2023-05-08T08:37:40;13.27;;;10.70;;
19278;SDS011;9773;47.062;15.446;2023-05-08T08:40:06;13.87;;;10.27;;
19278;SDS011;9773;47.062;15.446;2023-05-08T08:42:32;14.00;;;10.20;;
19278;SDS011;9773;47.062;15.446;2023-05-08T08:44:59;11.90;;;9.60;;
19278;SDS011;9773;47.062;15.446;2023-05-08T08:47:28;12.73;;;10.00;;
19278;SDS011;9773;47.062;15.446;2023-05-08T08:49:59;15.13;;;10.47;;
19278;SDS011;9773;47.062;15.446;2023-05-08T08:52:38;15.30;;;10.60;;
19278;SDS011;9773;47.062;15.446;2023-05-08T08:55:19;13.03;;;10.67;;
19278;SDS011;9773;47.062;15.446;2023-05-08T08:58:02;16.17;;;10.90;;
19278;SDS011;9773;47.062;15.446;2023-05-08T09:00:50;13.23;;;9.97;;
19278;SDS011;9773;47.062;15.446;2023-05-08T09:03:18;13.60;;;10.83;;
19278;SDS011;9773;47.062;15.446;2023-05-08T09:05:44;12.73;;;10.67;;
19278;SDS011;9773;47.062;15.446;2023-05-08T09:08:16;14.57;;;11.20;;
19278;SDS011;9773;47.062;15.446;2023-05-08T09:10:43;15.70;;;10.70;;
19278;SDS011;9773;47.062;15.446;2023-05-08T09:13:09;13.37;;;10.03;;
19278;SDS011;9773;47.062;15.446;2023-05-08T09:15:35;14.23;;;11.10;;
19278;SDS011;9773;47.062;15.446;2023-05-08T09:18:01;12.40;;;10.43;;
19278;SDS011;9773;47.062;15.446;2023-05-08T09:20:27;17.13;;;10.37;;
19278;SDS011;9773;47.062;15.446;2023-05-08T09:22:54;13.43;;;9.80;;
19278;SDS011;9773;47.062;15.446;2023-05-08T09:25:22;13.27;;;9.67;;
19278;SDS011;9773;47.062;15.446;2023-05-08T09:27:47;15.27;;;10.70;;
19278;SDS011;9773;47.062;15.446;2023-05-08T09:30:13;13.37;;;10.47;;
19278;SDS011;9773;47.062;15.446;2023-05-08T09:32:40;15.53;;;10.73;;
19278;SDS011;9773;47.062;15.446;2023-05-08T09:35:08;12.47;;;9.60;;
19278;SDS011;9773;47.062;15.446;2023-05-08T09:37:36;12.50;;;10.80;;
19278;SDS011;9773;47.062;15.446;2023-05-08T09:40:13;14.00;;;10.97;;
19278;SDS011;9773;47.062;15.446;2023-05-08T09:42:43;13.70;;;11.23;;
19278;SDS011;9773;47.062;15.446;2023-05-08T09:45:10;12.60;;;10.30;;
19278;SDS011;9773;47.062;15.446;2023-05-08T09:47:36;14.20;;;10.90;;
19278;SDS011;9773;47.062;15.446;2023-05-08T09:50:04;13.70;;;10.70;;
19278;SDS011;9773;47.062;15.446;2023-05-08T09:52:37;12.60;;;10.63;;
19278;SDS011;9773;47.062;15.446;2023-05-08T09:55:10;13.63;;;10.13;;
19278;SDS011;9773;47.062;15.446;2023-05-08T09:57:36;13.20;;;10.33;;
19278;SDS011;9773;47.062;15.446;2023-05-08T10:02:37;13.13;;;9.83;;
19278;SDS011;9773;47.062;15.446;2023-05-08T10:05:04;13.63;;;10.67;;
19278;SDS011;9773;47.062;15.446;2023-05-08T10:07:46;12.80;;;10.43;;
19278;SDS011;9773;47.062;15.446;2023-05-08T10:10:12;13.07;;;9.80;;
19278;SDS011;9773;47.062;15.446;2023-05-08T10:12:38;12.40;;;10.53;;
19278;SDS011;9773;47.062;15.446;2023-05-08T10:15:05;16.43;;;10.90;;
19278;SDS011;9773;47.062;15.446;2023-05-08T10:17:37;15.97;;;11.37;;
19278;SDS011;9773;47.062;15.446;2023-05-08T10:20:08;13.43;;;10.60;;
19278;SDS011;9773;47.062;15.446;2023-05-08T10:22:38;13.03;;;11.33;;
19278;SDS011;9773;47.062;15.446;2023-05-08T10:25:11;15.27;;;11.20;;
19278;SDS011;9773;47.062;15.446;2023-05-08T10:27:52;14.50;;;10.83;;
19278;SDS011;9773;47.062;15.446;2023-05-08T10:30:25;14.77;;;11.00;;
19278;SDS011;9773;47.062;15.446;2023-05-08T10:32:52;20.53;;;11.87;;
19278;SDS011;9773;47.062;15.446;2023-05-08T10:35:20;17.93;;;12.17;;
19278;SDS011;9773;47.062;15.446;2023-05-08T10:37:47;14.60;;;11.47;;
19278;SDS011;9773;47.062;15.446;2023-05-08T10:40:13;16.83;;;12.17;;
19278;SDS011;9773;47.062;15.446;2023-05-08T10:42:40;18.30;;;11.83;;
19278;SDS011;9773;47.062;15.446;2023-05-08T10:45:06;14.27;;;12.13;;
19278;SDS011;9773;47.062;15.446;2023-05-08T10:53:16;17.73;;;12.10;;
19278;SDS011;9773;47.062;15.446;2023-05-08T10:55:48;15.93;;;12.27;;
19278;SDS011;9773;47.062;15.446;2023-05-08T10:58:28;17.60;;;12.90;;
19278;SDS011;9773;47.062;15.446;2023-05-08T11:03:24;16.60;;;12.67;;
19278;SDS011;9773;47.062;15.446;2023-05-08T11:05:57;19.30;;;13.40;;
19278;SDS011;9773;47.062;15.446;2023-05-08T11:08:25;17.07;;;12.23;;
19278;SDS011;9773;47.062;15.446;2023-05-08T11:13:39;16.33;;;12.90;;
19278;SDS011;9773;47.062;15.446;2023-05-08T11:19:21;16.70;;;12.27;;
19278;SDS011;9773;47.062;15.446;2023-05-08T11:24:36;15.90;;;12.63;;
19278;SDS011;9773;47.062;15.446;2023-05-08T11:27:03;16.90;;;12.87;;
19278;SDS011;9773;47.062;15.446;2023-05-08T11:29:29;18.33;;;13.10;;
19278;SDS011;9773;47.062;15.446;2023-05-08T11:31:55;18.20;;;13.17;;
19278;SDS011;9773;47.062;15.446;2023-05-08T11:37:08;18.57;;;13.43;;
19278;SDS011;9773;47.062;15.446;2023-05-08T11:39:38;17.13;;;12.90;;
19278;SDS011;9773;47.062;15.446;2023-05-08T11:45:11;18.87;;;11.87;;
19278;SDS011;9773;47.062;15.446;2023-05-08T11:47:41;16.73;;;12.67;;
19278;SDS011;9773;47.062;15.446;2023-05-08T11:50:09;16.60;;;12.30;;
19278;SDS011;9773;47.062;15.446;2023-05-08T11:52:36;14.67;;;11.83;;
19278;SDS011;9773;47.062;15.446;2023-05-08T11:55:04;14.87;;;10.93;;
19278;SDS011;9773;47.062;15.446;2023-05-08T11:57:31;13.60;;;10.60;;
19278;SDS011;9773;47.062;15.446;2023-05-08T12:00:02;14.83;;;11.47;;
19278;SDS011;9773;47.062;15.446;2023-05-08T12:02:33;14.63;;;11.57;;
19278;SDS011;9773;47.062;15.446;2023-05-08T12:05:03;16.73;;;11.33;;
19278;SDS011;9773;47.062;15.446;2023-05-08T12:07:30;17.73;;;12.13;;
19278;SDS011;9773;47.062;15.446;2023-05-08T12:09:56;18.47;;;11.67;;
19278;SDS011;9773;47.062;15.446;2023-05-08T12:12:22;13.93;;;12.23;;
19278;SDS011;9773;47.062;15.446;2023-05-08T12:14:48;18.73;;;11.73;;
19278;SDS011;9773;47.062;15.446;2023-05-08T12:17:15;14.93;;;11.53;;
19278;SDS011;9773;47.062;15.446;2023-05-08T12:19:43;15.07;;;11.23;;
19278;SDS011;9773;47.062;15.446;2023-05-08T12:22:08;13.60;;;11.87;;
19278;SDS011;9773;47.062;15.446;2023-05-08T12:24:34;18.57;;;12.50;;
19278;SDS011;9773;47.062;15.446;2023-05-08T12:27:00;17.73;;;12.40;;
19278;SDS011;9773;47.062;15.446;2023-05-08T12:29:26;14.23;;;12.17;;
19278;SDS011;9773;47.062;15.446;2023-05-08T12:31:54;17.47;;;11.90;;
19278;SDS011;9773;47.062;15.446;2023-05-08T12:34:20;17.27;;;12.83;;
19278;SDS011;9773;47.062;15.446;2023-05-08T12:36:46;16.00;;;11.77;;
19278;SDS011;9773;47.062;15.446;2023-05-08T12:39:13;18.03;;;12.03;;
19278;SDS011;9773;47.062;15.446;2023-05-08T12:41:49;14.80;;;11.77;;
19278;SDS011;9773;47.062;15.446;2023-05-08T12:44:19;16.77;;;12.07;;
19278;SDS011;9773;47.062;15.446;2023-05-08T12:46:51;15.83;;;12.67;;
19278;SDS011;9773;47.062;15.446;2023-05-08T12:52:03;15.43;;;11.33;;
19278;SDS011;9773;47.062;15.446;2023-05-08T12:54:37;15.87;;;12.67;;
19278;SDS011;9773;47.062;15.446;2023-05-08T12:57:11;15.00;;;12.00;;
19278;SDS011;9773;47.062;15.446;2023-05-08T12:59:38;15.87;;;12.13;;
19278;SDS011;9773;47.062;15.446;2023-05-08T13:02:10;15.60;;;11.47;;
19278;SDS011;9773;47.062;15.446;2023-05-08T13:04:51;16.67;;;12.63;;
19278;SDS011;9773;47.062;15.446;2023-05-08T13:07:19;16.77;;;12.30;;
19278;SDS011;9773;47.062;15.446;2023-05-08T13:09:55;15.53;;;12.03;;
19278;SDS011;9773;47.062;15.446;2023-05-08T13:12:27;16.53;;;12.87;;
19278;SDS011;9773;47.062;15.446;2023-05-08T13:14:53;14.83;;;11.73;;
19278;SDS011;9773;47.062;15.446;2023-05-08T13:17:19;15.73;;;11.00;;
19278;SDS011;9773;47.062;15.446;2023-05-08T13:19:45;16.27;;;11.77;;
19278;SDS011;9773;47.062;15.446;2023-05-08T13:22:10;17.40;;;11.93;;
19278;SDS011;9773;47.062;15.446;2023-05-08T13:24:36;13.43;;;10.90;;
19278;SDS011;9773;47.062;15.446;2023-05-08T13:27:02;14.13;;;11.10;;
19278;SDS011;9773;47.062;15.446;2023-05-08T13:29:28;15.13;;;11.37;;
19278;SDS011;9773;47.062;15.446;2023-05-08T13:31:53;15.03;;;11.13;;
19278;SDS011;9773;47.062;15.446;2023-05-08T13:34:19;14.67;;;10.73;;
19278;SDS011;9773;47.062;15.446;2023-05-08T13:36:45;13.13;;;10.73;;
19278;SDS011;9773;47.062;15.446;2023-05-08T13:39:11;14.40;;;11.33;;
19278;SDS011;9773;47.062;15.446;2023-05-08T13:41:36;16.50;;;11.73;;
19278;SDS011;9773;47.062;15.446;2023-05-08T13:44:02;14.17;;;11.30;;
19278;SDS011;9773;47.062;15.446;2023-05-08T13:46:28;18.57;;;11.20;;
19278;SDS011;9773;47.062;15.446;2023-05-08T13:48:53;13.77;;;10.93;;
19278;SDS011;9773;47.062;15.446;2023-05-08T13:51:19;15.40;;;11.57;;
19278;SDS011;9773;47.062;15.446;2023-05-08T13:53:45;16.00;;;11.90;;
19278;SDS011;9773;47.062;15.446;2023-05-08T13:56:10;13.20;;;10.87;;
19278;SDS011;9773;47.062;15.446;2023-05-08T13:58:36;15.60;;;11.43;;
19278;SDS011;9773;47.062;15.446;2023-05-08T14:01:02;13.57;;;11.27;;
19278;SDS011;9773;47.062;15.446;2023-05-08T14:03:30;13.80;;;11.07;;
19278;SDS011;9773;47.062;15.446;2023-05-08T14:05:56;12.57;;;9.70;;
19278;SDS011;9773;47.062;15.446;2023-05-08T14:08:22;15.07;;;10.30;;
19278;SDS011;9773;47.062;15.446;2023-05-08T14:10:51;13.30;;;10.67;;
19278;SDS011;9773;47.062;15.446;2023-05-08T14:13:16;12.37;;;9.93;;
19278;SDS011;9773;47.062;15.446;2023-05-08T14:15:42;13.57;;;9.70;;
19278;SDS011;9773;47.062;15.446;2023-05-08T14:18:08;12.53;;;9.70;;
19278;SDS011;9773;47.062;15.446;2023-05-08T14:20:33;12.43;;;9.70;;
19278;SDS011;9773;47.062;15.446;2023-05-08T14:22:59;14.33;;;9.43;;
19278;SDS011;9773;47.062;15.446;2023-05-08T14:25:25;13.17;;;10.50;;
19278;SDS011;9773;47.062;15.446;2023-05-08T14:27:51;11.20;;;9.23;;
19278;SDS011;9773;47.062;15.446;2023-05-08T14:30:16;12.73;;;10.10;;
19278;SDS011;9773;47.062;15.446;2023-05-08T14:32:42;12.73;;;10.07;;
19278;SDS011;9773;47.062;15.446;2023-05-08T14:35:08;13.63;;;10.57;;
19278;SDS011;9773;47.062;15.446;2023-05-08T14:37:34;14.37;;;10.23;;
19278;SDS011;9773;47.062;15.446;2023-05-08T14:40:00;11.47;;;9.13;;
19278;SDS011;9773;47.062;15.446;2023-05-08T14:42:26;15.30;;;10.37;;
19278;SDS011;9773;47.062;15.446;2023-05-08T14:44:51;13.63;;;10.50;;
19278;SDS011;9773;47.062;15.446;2023-05-08T14:47:17;14.67;;;11.13;;
19278;SDS011;9773;47.062;15.446;2023-05-08T14:49:43;14.43;;;10.20;;
19278;SDS011;9773;47.062;15.446;2023-05-08T14:52:08;13.00;;;9.67;;
19278;SDS011;9773;47.062;15.446;2023-05-08T14:54:34;15.03;;;11.03;;
19278;SDS011;9773;47.062;15.446;2023-05-08T14:57:00;16.03;;;12.30;;
19278;SDS011;9773;47.062;15.446;2023-05-08T14:59:26;13.63;;;11.00;;
19278;SDS011;9773;47.062;15.446;2023-05-08T15:01:51;14.20;;;11.20;;
19278;SDS011;9773;47.062;15.446;2023-05-08T15:04:17;16.53;;;12.37;;
19278;SDS011;9773;47.062;15.446;2023-05-08T15:06:43;16.67;;;11.97;;
19278;SDS011;9773;47.062;15.446;2023-05-08T15:09:08;14.50;;;11.13;;
19278;SDS011;9773;47.062;15.446;2023-05-08T15:11:35;16.50;;;11.53;;
19278;SDS011;9773;47.062;15.446;2023-05-08T15:14:02;15.10;;;11.57;;
19278;SDS011;9773;47.062;15.446;2023-05-08T15:16:28;12.40;;;10.30;;
19278;SDS011;9773;47.062;15.446;2023-05-08T15:18:54;15.30;;;11.33;;
19278;SDS011;9773;47.062;15.446;2023-05-08T15:21:20;14.83;;;11.23;;
19278;SDS011;9773;47.062;15.446;2023-05-08T15:23:50;17.47;;;10.67;;